Time;durP1;ratioP1;P1;durP2;ratioP2;P2;SDS_P1;SDS_P2;PMS_P1;PMS_P2;Temp;Humidity;BMP_temperature;BMP_pressure;BME280_temperature;BME280_humidity;BME280_pressure;Samples;Min_cycle;Max_cycle;Signal;HPM_P1;HPM_P2
2023/01/29 00:00:08;;;;;;;38.03;21.55;;;;;;;;;;5015973;28;20038;-70
2023/01/29 00:02:35;;;;;;;37.35;21.92;;;;;;;;;;4678375;28;10000449;-71
2023/01/29 00:05:01;;;;;;;38.78;22.80;;;;;;;;;;5016294;28;20056;-70
2023/01/29 00:07:27;;;;;;;45.35;25.00;;;;;;;;;;5023702;28;20446;-70
2023/01/29 00:09:53;;;;;;;47.15;26.50;;;;;;;;;;5024331;28;20022;-70
2023/01/29 00:12:19;;;;;;;49.83;25.60;;;;;;;;;;5022634;28;20033;-70
2023/01/29 00:14:44;;;;;;;40.20;22.65;;;;;;;;;;5029682;28;20700;-70
2023/01/29 00:17:10;;;;;;;40.35;23.80;;;;;;;;;;5023293;28;20056;-71
2023/01/29 00:19:36;;;;;;;39.08;22.08;;;;;;;;;;5030730;28;20036;-71
2023/01/29 00:22:03;;;;;;;39.20;22.25;;;;;;;;;;5024595;28;20029;-70
2023/01/29 00:24:28;;;;;;;39.38;21.83;;;;;;;;;;5020958;28;20037;-70
2023/01/29 00:26:54;;;;;;;36.97;21.75;;;;;;;;;;5030437;28;20092;-70
2023/01/29 00:29:20;;;;;;;36.30;21.95;;;;;;;;;;5028193;28;20040;-70
2023/01/29 00:31:46;;;;;;;35.72;21.20;;;;;;;;;;5009654;28;20025;-70
2023/01/29 00:34:13;;;;;;;39.25;22.92;;;;;;;;;;5013951;28;20029;-70
2023/01/29 00:36:39;;;;;;;36.72;22.13;;;;;;;;;;5016312;28;20045;-70
2023/01/29 00:39:09;;;;;;;41.50;23.27;;;;;;;;;;5010093;28;20034;-71
2023/01/29 00:49:50;;;;;;;42.83;23.20;;;;;;;;;;5017224;28;20060;-70
2023/01/29 00:52:25;;;;;;;46.88;23.25;;;;;;;;;;5009341;28;20125;-70
2023/01/29 00:54:52;;;;;;;46.72;23.55;;;;;;;;;;5016239;28;20033;-70
2023/01/29 00:57:18;;;;;;;40.35;23.58;;;;;;;;;;5012794;28;20046;-70
2023/01/29 00:59:44;;;;;;;42.03;24.23;;;;;;;;;;5013509;28;20029;-70
2023/01/29 01:04:54;;;;;;;39.08;22.85;;;;;;;;;;5014305;28;20095;-70
2023/01/29 01:07:21;;;;;;;41.83;22.85;;;;;;;;;;5018076;28;20041;-71
2023/01/29 01:12:32;;;;;;;45.50;24.30;;;;;;;;;;5009795;28;20049;-71
2023/01/29 01:14:58;;;;;;;40.60;22.25;;;;;;;;;;5010588;28;20045;-71
2023/01/29 01:17:24;;;;;;;43.38;25.05;;;;;;;;;;5019154;28;20525;-70
2023/01/29 01:19:50;;;;;;;40.83;23.20;;;;;;;;;;5015073;28;20058;-70
2023/01/29 01:22:16;;;;;;;41.13;23.58;;;;;;;;;;5011082;28;20108;-71
2023/01/29 01:24:42;;;;;;;42.60;23.42;;;;;;;;;;5027306;28;20033;-71
2023/01/29 01:27:08;;;;;;;41.83;23.48;;;;;;;;;;5029210;28;20036;-71
2023/01/29 01:29:34;;;;;;;44.58;24.08;;;;;;;;;;5028560;28;20086;-71
2023/01/29 01:32:00;;;;;;;42.75;23.88;;;;;;;;;;5014524;28;20048;-71
2023/01/29 01:34:26;;;;;;;40.53;24.05;;;;;;;;;;5036806;28;20733;-71
2023/01/29 01:36:54;;;;;;;41.55;23.77;;;;;;;;;;5012032;28;20049;-70
2023/01/29 01:39:20;;;;;;;39.22;22.02;;;;;;;;;;5013321;28;20068;-70
2023/01/29 01:41:46;;;;;;;42.13;24.30;;;;;;;;;;5018996;28;20053;-70
2023/01/29 01:44:31;;;;;;;42.45;23.13;;;;;;;;;;5013487;28;20030;-70
2023/01/29 01:47:00;;;;;;;42.53;23.92;;;;;;;;;;5010247;28;20037;-70
2023/01/29 01:49:26;;;;;;;41.22;23.40;;;;;;;;;;5021697;28;20050;-71
2023/01/29 01:51:52;;;;;;;39.03;22.73;;;;;;;;;;5010448;28;20036;-70
2023/01/29 01:54:23;;;;;;;40.30;23.33;;;;;;;;;;5015551;28;20036;-70
2023/01/29 01:56:54;;;;;;;41.65;23.42;;;;;;;;;;5017121;28;20025;-70
2023/01/29 01:59:21;;;;;;;39.60;23.00;;;;;;;;;;5009020;28;20729;-70
2023/01/29 02:01:50;;;;;;;38.22;21.80;;;;;;;;;;5013761;28;20031;-70
2023/01/29 02:09:52;;;;;;;42.70;22.35;;;;;;;;;;5017926;28;20164;-70
2023/01/29 02:12:19;;;;;;;38.10;21.70;;;;;;;;;;5016936;28;20025;-70
2023/01/29 02:14:45;;;;;;;39.63;22.80;;;;;;;;;;5013060;28;20386;-70
2023/01/29 02:17:13;;;;;;;36.30;21.15;;;;;;;;;;5019677;28;20056;-71
2023/01/29 02:19:48;;;;;;;38.25;22.30;;;;;;;;;;5011450;28;20033;-71
2023/01/29 02:22:15;;;;;;;35.78;21.52;;;;;;;;;;5017662;28;20030;-71
2023/01/29 02:25:08;;;;;;;38.60;20.95;;;;;;;;;;5021521;28;20073;-71
2023/01/29 02:27:40;;;;;;;36.53;21.27;;;;;;;;;;5009991;28;20105;-71
2023/01/29 02:30:12;;;;;;;37.72;21.73;;;;;;;;;;5010046;28;20034;-71
2023/01/29 02:32:53;;;;;;;36.10;21.20;;;;;;;;;;5004166;28;20038;-71
2023/01/29 02:35:27;;;;;;;37.60;21.58;;;;;;;;;;5017925;28;20061;-70
2023/01/29 02:37:59;;;;;;;39.03;22.73;;;;;;;;;;5015257;28;20477;-71
2023/01/29 02:40:46;;;;;;;40.75;22.60;;;;;;;;;;5015597;28;20032;-70
2023/01/29 02:43:30;;;;;;;36.22;21.50;;;;;;;;;;5011866;28;20038;-71
2023/01/29 02:46:02;;;;;;;37.42;21.15;;;;;;;;;;5018488;28;20034;-70
2023/01/29 02:48:41;;;;;;;39.03;22.07;;;;;;;;;;5022550;28;20044;-71
2023/01/29 02:51:10;;;;;;;40.38;21.30;;;;;;;;;;5022633;28;20461;-70
2023/01/29 02:53:57;;;;;;;37.50;21.92;;;;;;;;;;5002905;28;20033;-70
2023/01/29 02:56:28;;;;;;;38.42;22.25;;;;;;;;;;5009410;28;20172;-70
2023/01/29 02:59:00;;;;;;;38.60;22.05;;;;;;;;;;5012867;28;20069;-70
2023/01/29 03:01:42;;;;;;;41.25;22.25;;;;;;;;;;5023658;28;20033;-71
2023/01/29 03:04:10;;;;;;;40.47;21.63;;;;;;;;;;5006429;28;20084;-70
2023/01/29 03:06:46;;;;;;;37.10;21.77;;;;;;;;;;5006859;28;20710;-70
2023/01/29 03:09:22;;;;;;;40.10;21.63;;;;;;;;;;5019887;28;20670;-70
2023/01/29 03:11:52;;;;;;;38.65;21.35;;;;;;;;;;5022598;28;20041;-70
2023/01/29 03:15:10;;;;;;;38.17;22.25;;;;;;;;;;5019023;28;20037;-70
2023/01/29 03:17:22;;;;;;;34.97;20.63;;;;;;;;;;5025557;28;20038;-70
2023/01/29 03:19:48;;;;;;;37.65;21.67;;;;;;;;;;5012351;28;20026;-70
2023/01/29 03:22:15;;;;;;;40.17;21.80;;;;;;;;;;5017908;28;20445;-70
2023/01/29 03:33:04;;;;;;;39.53;21.70;;;;;;;;;;5016828;28;20548;-70
2023/01/29 03:35:35;;;;;;;39.97;22.60;;;;;;;;;;5011740;28;20026;-70
2023/01/29 03:38:01;;;;;;;37.13;21.38;;;;;;;;;;5013225;28;20044;-70
2023/01/29 03:40:31;;;;;;;39.60;22.05;;;;;;;;;;5020253;28;20029;-71
2023/01/29 03:43:03;;;;;;;38.45;21.05;;;;;;;;;;5014183;28;20029;-70
2023/01/29 03:45:32;;;;;;;32.50;17.60;;;;;;;;;;5012730;28;20064;-70
2023/01/29 03:48:04;;;;;;;38.03;20.80;;;;;;;;;;5016949;28;20037;-70
2023/01/29 03:50:49;;;;;;;39.10;21.43;;;;;;;;;;5014854;28;20545;-71
2023/01/29 03:53:15;;;;;;;37.95;20.83;;;;;;;;;;5011103;28;20056;-70
2023/01/29 03:55:42;;;;;;;37.20;21.23;;;;;;;;;;5016320;28;20060;-71
2023/01/29 03:58:15;;;;;;;39.28;21.75;;;;;;;;;;5009930;28;20029;-71
2023/01/29 04:00:41;;;;;;;;;;;;;;;;;;5018047;28;20029;-71
2023/01/29 04:03:20;;;;;;;36.55;20.73;;;;;;;;;;5021088;28;19917;-71
2023/01/29 04:05:50;;;;;;;36.70;20.63;;;;;;;;;;5022557;28;20029;-71
2023/01/29 04:08:22;;;;;;;36.42;20.58;;;;;;;;;;5018194;28;20668;-70
2023/01/29 04:10:49;;;;;;;36.95;20.63;;;;;;;;;;5008212;28;20053;-70
2023/01/29 04:13:15;;;;;;;37.70;21.02;;;;;;;;;;5015352;28;20052;-70
2023/01/29 04:15:50;;;;;;;37.08;21.45;;;;;;;;;;5017945;28;20060;-70
2023/01/29 04:18:16;;;;;;;39.22;21.42;;;;;;;;;;5021451;28;20034;-70
2023/01/29 04:20:42;;;;;;;39.20;21.55;;;;;;;;;;5025930;28;20026;-71
2023/01/29 04:23:22;;;;;;;37.15;21.30;;;;;;;;;;5023509;28;20036;-70
2023/01/29 04:25:53;;;;;;;39.78;22.67;;;;;;;;;;5013957;28;20038;-70
2023/01/29 04:28:22;;;;;;;39.92;21.85;;;;;;;;;;5016008;28;20029;-70
2023/01/29 04:30:59;;;;;;;39.25;21.30;;;;;;;;;;5026144;28;20448;-70
2023/01/29 04:33:43;;;;;;;38.97;21.42;;;;;;;;;;5020856;28;20693;-71
2023/01/29 04:36:23;;;;;;;38.50;21.83;;;;;;;;;;5016032;28;20544;-70
2023/01/29 04:38:55;;;;;;;38.75;21.17;;;;;;;;;;5011435;28;20100;-70
2023/01/29 04:41:29;;;;;;;29.13;15.67;;;;;;;;;;5028345;28;20050;-70
2023/01/29 04:44:05;;;;;;;38.00;20.63;;;;;;;;;;5011858;28;20597;-70
2023/01/29 04:46:34;;;;;;;48.10;24.27;;;;;;;;;;5020354;28;20502;-70
2023/01/29 04:49:12;;;;;;;47.72;24.58;;;;;;;;;;5014546;28;20422;-71
2023/01/29 04:51:49;;;;;;;41.65;23.75;;;;;;;;;;5007741;28;20030;-70
2023/01/29 04:54:17;;;;;;;42.58;23.10;;;;;;;;;;5015612;28;20057;-70
2023/01/29 04:56:51;;;;;;;36.67;21.40;;;;;;;;;;5018604;28;20444;-70
2023/01/29 04:59:20;;;;;;;41.22;21.55;;;;;;;;;;5024147;28;20526;-70
2023/01/29 05:01:47;;;;;;;40.70;22.10;;;;;;;;;;5015291;28;20109;-70
2023/01/29 05:04:15;;;;;;;40.80;21.80;;;;;;;;;;5012261;28;20033;-71
2023/01/29 05:06:42;;;;;;;40.38;22.27;;;;;;;;;;5016456;28;20040;-71
2023/01/29 05:09:08;;;;;;;39.47;22.33;;;;;;;;;;5010341;28;20030;-71
2023/01/29 05:11:35;;;;;;;40.80;23.38;;;;;;;;;;5017900;28;20385;-71
2023/01/29 05:14:03;;;;;;;42.45;21.65;;;;;;;;;;5018587;28;20480;-71
2023/01/29 05:16:40;;;;;;;37.80;22.02;;;;;;;;;;5019182;28;20111;-71
2023/01/29 05:19:06;;;;;;;39.30;21.88;;;;;;;;;;5020158;28;20071;-70
2023/01/29 05:21:32;;;;;;;40.67;22.05;;;;;;;;;;5019850;28;20034;-71
2023/01/29 05:24:12;;;;;;;40.28;21.55;;;;;;;;;;5026855;28;20040;-70
2023/01/29 05:29:23;;;;;;;37.50;19.90;;;;;;;;;;5015716;28;20049;-71
2023/01/29 05:31:49;;;;;;;38.55;20.85;;;;;;;;;;5011743;28;20406;-70
2023/01/29 05:34:15;;;;;;;36.67;20.63;;;;;;;;;;5010626;28;20033;-70
2023/01/29 05:36:41;;;;;;;41.10;21.08;;;;;;;;;;5017338;28;20025;-70
2023/01/29 05:39:07;;;;;;;35.88;20.33;;;;;;;;;;5016915;28;20626;-71
2023/01/29 05:41:33;;;;;;;34.88;20.13;;;;;;;;;;5013572;28;20033;-71
2023/01/29 05:43:59;;;;;;;36.67;20.17;;;;;;;;;;5017135;28;20087;-70
2023/01/29 05:46:25;;;;;;;37.35;20.98;;;;;;;;;;5016619;28;20025;-70
2023/01/29 05:48:54;;;;;;;37.78;20.60;;;;;;;;;;5017240;28;20468;-70
2023/01/29 05:51:20;;;;;;;38.95;20.85;;;;;;;;;;5008079;28;20747;-71
2023/01/29 05:53:46;;;;;;;43.05;23.13;;;;;;;;;;5009740;28;20367;-70
2023/01/29 05:56:12;;;;;;;44.05;23.50;;;;;;;;;;5024899;28;20049;-71
2023/01/29 05:58:38;;;;;;;46.97;24.50;;;;;;;;;;5019177;28;20842;-71
2023/01/29 06:01:14;;;;;;;38.70;20.65;;;;;;;;;;5020709;28;20709;-71
2023/01/29 06:03:40;;;;;;;38.83;20.90;;;;;;;;;;5008662;28;20495;-71
2023/01/29 06:06:06;;;;;;;40.38;20.73;;;;;;;;;;5020541;28;20526;-71
2023/01/29 06:08:32;;;;;;;42.70;20.75;;;;;;;;;;5018331;28;20037;-71
2023/01/29 06:10:58;;;;;;;37.78;20.35;;;;;;;;;;5011421;28;20155;-71
2023/01/29 06:13:24;;;;;;;35.63;19.58;;;;;;;;;;5017532;28;20025;-71
2023/01/29 06:15:50;;;;;;;33.65;18.77;;;;;;;;;;5022276;28;20026;-71
2023/01/29 06:18:16;;;;;;;34.13;19.00;;;;;;;;;;5022556;28;20084;-71
2023/01/29 06:20:42;;;;;;;34.63;18.75;;;;;;;;;;5006751;28;20045;-71
2023/01/29 06:23:08;;;;;;;35.20;18.23;;;;;;;;;;5024639;28;20037;-71
2023/01/29 06:25:34;;;;;;;33.10;19.05;;;;;;;;;;5028397;28;20056;-71
2023/01/29 06:28:00;;;;;;;36.85;19.33;;;;;;;;;;5011950;28;20478;-71
2023/01/29 06:30:27;;;;;;;37.17;19.75;;;;;;;;;;5008025;28;20033;-70
2023/01/29 06:32:57;;;;;;;37.22;21.00;;;;;;;;;;5020483;28;20105;-71
2023/01/29 06:35:23;;;;;;;35.53;19.85;;;;;;;;;;5027494;28;20038;-70
2023/01/29 06:37:49;;;;;;;40.85;21.38;;;;;;;;;;5025734;28;20022;-71
2023/01/29 06:40:16;;;;;;;43.67;22.40;;;;;;;;;;5029004;28;20532;-70
2023/01/29 06:42:42;;;;;;;41.35;22.17;;;;;;;;;;5016533;28;20022;-70
2023/01/29 06:45:08;;;;;;;36.00;19.55;;;;;;;;;;5014554;28;20029;-70
2023/01/29 06:47:34;;;;;;;40.47;22.65;;;;;;;;;;5016873;28;20438;-70
2023/01/29 06:50:00;;;;;;;37.85;21.67;;;;;;;;;;5017670;28;20136;-70
2023/01/29 06:52:27;;;;;;;39.13;21.88;;;;;;;;;;5013411;28;20026;-71
2023/01/29 06:54:57;;;;;;;44.22;24.33;;;;;;;;;;5019980;28;20482;-71
2023/01/29 06:57:23;;;;;;;41.03;22.38;;;;;;;;;;5027781;28;20095;-70
2023/01/29 06:59:49;;;;;;;40.97;22.80;;;;;;;;;;5021627;28;20532;-71
2023/01/29 07:02:15;;;;;;;45.92;24.85;;;;;;;;;;5017663;28;20033;-71
2023/01/29 07:04:41;;;;;;;48.28;24.95;;;;;;;;;;5012711;28;20069;-70
2023/01/29 07:07:12;;;;;;;35.85;20.70;;;;;;;;;;5010958;28;20048;-70
2023/01/29 07:09:41;;;;;;;36.13;20.52;;;;;;;;;;5020406;28;20080;-70
2023/01/29 07:12:07;;;;;;;40.28;21.98;;;;;;;;;;5017100;28;20120;-71
2023/01/29 07:14:33;;;;;;;34.65;19.17;;;;;;;;;;5018130;28;20052;-70
2023/01/29 07:16:59;;;;;;;33.35;18.95;;;;;;;;;;5024541;28;20443;-70
2023/01/29 07:19:25;;;;;;;33.03;17.92;;;;;;;;;;5014833;28;20466;-71
2023/01/29 07:21:51;;;;;;;39.95;21.35;;;;;;;;;;5020104;28;20112;-71
2023/01/29 07:24:18;;;;;;;38.28;21.63;;;;;;;;;;5020985;28;20405;-70
2023/01/29 07:26:44;;;;;;;36.17;19.58;;;;;;;;;;5016052;28;20060;-70
2023/01/29 07:29:10;;;;;;;30.27;18.27;;;;;;;;;;4667771;28;10000020;-71
2023/01/29 07:31:36;;;;;;;38.42;18.83;;;;;;;;;;5011374;28;20033;-71
2023/01/29 07:34:02;;;;;;;35.13;18.90;;;;;;;;;;5006136;28;20069;-71
2023/01/29 07:36:28;;;;;;;28.52;17.05;;;;;;;;;;5012544;28;20075;-71
2023/01/29 07:38:54;;;;;;;32.90;18.27;;;;;;;;;;5023941;28;21831;-71
2023/01/29 07:41:21;;;;;;;35.10;18.08;;;;;;;;;;5019288;28;20033;-71
2023/01/29 07:43:47;;;;;;;31.38;18.05;;;;;;;;;;5020637;28;20033;-71
2023/01/29 07:46:13;;;;;;;35.97;19.00;;;;;;;;;;5014896;28;20430;-71
2023/01/29 07:48:39;;;;;;;29.38;16.90;;;;;;;;;;5019967;28;20426;-71
2023/01/29 07:51:05;;;;;;;35.00;20.33;;;;;;;;;;5008973;28;20033;-71
2023/01/29 07:53:31;;;;;;;32.08;17.35;;;;;;;;;;5024101;28;20481;-71
2023/01/29 07:55:57;;;;;;;37.35;18.60;;;;;;;;;;5021465;28;20079;-71
2023/01/29 07:58:24;;;;;;;30.25;17.67;;;;;;;;;;5024143;28;20034;-71
2023/01/29 08:00:49;;;;;;;33.72;17.58;;;;;;;;;;5018297;28;20025;-71
2023/01/29 08:03:17;;;;;;;33.40;17.85;;;;;;;;;;5015528;28;20056;-71
2023/01/29 08:05:44;;;;;;;32.17;18.90;;;;;;;;;;5020868;28;20041;-71
2023/01/29 08:08:10;;;;;;;37.88;20.77;;;;;;;;;;5021085;28;20171;-70
2023/01/29 08:10:37;;;;;;;65.15;30.98;;;;;;;;;;5017144;28;20127;-70
2023/01/29 08:13:03;;;;;;;97.95;42.97;;;;;;;;;;5027601;28;20029;-70
2023/01/29 08:15:30;;;;;;;46.55;24.27;;;;;;;;;;5018287;28;20033;-71
2023/01/29 08:17:56;;;;;;;39.42;22.05;;;;;;;;;;5018212;28;20318;-70
2023/01/29 08:20:22;;;;;;;34.60;20.00;;;;;;;;;;5022228;28;20681;-71
2023/01/29 08:22:48;;;;;;;33.83;18.88;;;;;;;;;;5013091;28;20029;-70
2023/01/29 08:25:14;;;;;;;31.98;19.05;;;;;;;;;;5013625;28;20615;-71
2023/01/29 08:27:41;;;;;;;33.80;19.40;;;;;;;;;;5020520;28;20096;-70
2023/01/29 08:30:07;;;;;;;32.00;19.15;;;;;;;;;;5020626;28;20339;-71
2023/01/29 08:32:33;;;;;;;31.55;18.77;;;;;;;;;;5015846;28;20043;-70
2023/01/29 08:34:59;;;;;;;33.70;19.33;;;;;;;;;;5013841;28;20030;-70
2023/01/29 08:37:25;;;;;;;57.17;29.92;;;;;;;;;;5015686;28;20252;-72
2023/01/29 08:39:51;;;;;;;64.88;35.08;;;;;;;;;;5015655;28;20461;-69
2023/01/29 08:42:17;;;;;;;39.58;23.23;;;;;;;;;;5009820;28;20038;-72
2023/01/29 08:44:43;;;;;;;36.17;21.83;;;;;;;;;;5017507;28;20033;-74
2023/01/29 08:47:09;;;;;;;34.45;20.88;;;;;;;;;;5039164;28;20056;-74
2023/01/29 08:49:35;;;;;;;40.00;21.35;;;;;;;;;;5021135;28;20115;-74
2023/01/29 08:52:01;;;;;;;36.08;20.40;;;;;;;;;;5009359;28;20482;-74
2023/01/29 08:54:27;;;;;;;31.90;19.38;;;;;;;;;;5012403;28;20029;-74
2023/01/29 08:56:53;;;;;;;32.67;19.58;;;;;;;;;;5017114;28;20030;-74
2023/01/29 08:59:19;;;;;;;36.47;22.13;;;;;;;;;;5022907;28;20030;-75
2023/01/29 09:01:45;;;;;;;35.67;20.85;;;;;;;;;;5027045;28;20529;-74
2023/01/29 09:04:11;;;;;;;35.55;20.40;;;;;;;;;;5027378;28;20167;-75
2023/01/29 09:06:37;;;;;;;35.53;20.70;;;;;;;;;;5027106;28;20038;-73
2023/01/29 09:09:03;;;;;;;34.83;20.77;;;;;;;;;;5021373;28;20049;-74
2023/01/29 09:11:29;;;;;;;33.70;19.98;;;;;;;;;;5016616;28;20044;-74
2023/01/29 09:13:55;;;;;;;31.50;18.55;;;;;;;;;;5009065;28;20030;-74
2023/01/29 09:16:21;;;;;;;31.83;20.10;;;;;;;;;;5006717;28;20030;-74
2023/01/29 09:18:47;;;;;;;36.45;20.33;;;;;;;;;;5022104;28;20029;-73
2023/01/29 09:21:13;;;;;;;34.85;20.50;;;;;;;;;;5026289;28;20025;-73
2023/01/29 09:23:39;;;;;;;31.55;19.08;;;;;;;;;;5028511;28;20124;-73
2023/01/29 09:26:06;;;;;;;36.80;21.38;;;;;;;;;;5014753;28;20253;-74
2023/01/29 09:28:32;;;;;;;40.33;22.08;;;;;;;;;;5014208;28;20087;-74
2023/01/29 09:31:02;;;;;;;33.78;18.98;;;;;;;;;;5025232;28;20477;-74
2023/01/29 09:33:29;;;;;;;32.95;19.50;;;;;;;;;;5022514;28;20751;-74
2023/01/29 09:35:55;;;;;;;34.83;20.20;;;;;;;;;;5025753;28;20496;-74
2023/01/29 09:38:21;;;;;;;32.67;20.25;;;;;;;;;;5027346;28;20112;-74
2023/01/29 09:40:55;;;;;;;33.10;19.58;;;;;;;;;;5025852;28;20029;-75
2023/01/29 09:43:44;;;;;;;33.03;19.10;;;;;;;;;;5018385;28;20116;-74
2023/01/29 09:46:29;;;;;;;31.98;18.73;;;;;;;;;;5020420;28;20037;-75
2023/01/29 09:49:08;;;;;;;32.90;19.15;;;;;;;;;;5014624;28;20161;-74
2023/01/29 09:51:38;;;;;;;34.92;20.02;;;;;;;;;;5018758;28;20038;-74
2023/01/29 09:54:11;;;;;;;30.73;18.40;;;;;;;;;;5015732;28;20405;-74
2023/01/29 09:56:38;;;;;;;30.83;18.40;;;;;;;;;;5025973;28;20126;-74
2023/01/29 09:59:04;;;;;;;31.70;19.05;;;;;;;;;;5015935;28;20030;-75
2023/01/29 10:01:37;;;;;;;31.42;18.70;;;;;;;;;;5017803;28;20033;-74
2023/01/29 10:04:10;;;;;;;30.48;18.90;;;;;;;;;;5008883;28;20033;-74
2023/01/29 10:06:39;;;;;;;39.45;22.08;;;;;;;;;;5009401;28;20034;-74
2023/01/29 10:09:14;;;;;;;40.55;22.27;;;;;;;;;;5009894;28;20034;-75
2023/01/29 10:11:56;;;;;;;32.92;20.50;;;;;;;;;;5021737;28;20511;-74
2023/01/29 10:14:41;;;;;;;34.10;20.40;;;;;;;;;;5026430;28;20079;-74
2023/01/29 10:17:25;;;;;;;31.52;19.00;;;;;;;;;;5021219;28;20037;-74
2023/01/29 10:20:00;;;;;;;31.60;20.15;;;;;;;;;;5025817;28;20503;-74
2023/01/29 10:22:36;;;;;;;32.63;19.38;;;;;;;;;;5020750;28;20446;-74
2023/01/29 10:25:04;;;;;;;32.08;19.70;;;;;;;;;;5011338;28;20113;-73
2023/01/29 10:27:32;;;;;;;30.77;19.40;;;;;;;;;;5026671;28;20667;-74
2023/01/29 10:29:58;;;;;;;34.17;21.17;;;;;;;;;;5028173;28;20540;-74
2023/01/29 10:32:25;;;;;;;35.53;19.67;;;;;;;;;;5015783;28;20044;-74
2023/01/29 10:34:53;;;;;;;33.05;19.55;;;;;;;;;;5013239;28;20399;-74
2023/01/29 10:37:23;;;;;;;35.15;19.45;;;;;;;;;;5029390;28;20117;-74
2023/01/29 10:39:49;;;;;;;33.72;20.35;;;;;;;;;;5032714;28;20117;-74
2023/01/29 10:42:16;;;;;;;32.03;19.30;;;;;;;;;;5012667;28;20037;-74
2023/01/29 10:45:01;;;;;;;35.72;21.73;;;;;;;;;;5025326;28;20071;-74
2023/01/29 10:47:35;;;;;;;36.53;20.77;;;;;;;;;;5027821;28;20033;-73
2023/01/29 10:50:11;;;;;;;34.67;21.38;;;;;;;;;;5027894;28;20083;-73
2023/01/29 10:52:51;;;;;;;33.28;20.05;;;;;;;;;;5014698;28;20065;-74
2023/01/29 10:55:23;;;;;;;34.28;20.30;;;;;;;;;;5024632;28;20042;-74
2023/01/29 10:58:08;;;;;;;29.77;16.67;;;;;;;;;;5025686;28;20496;-74
2023/01/29 11:00:36;;;;;;;34.63;20.88;;;;;;;;;;5026104;28;20287;-74
2023/01/29 11:03:22;;;;;;;34.75;19.73;;;;;;;;;;5022354;28;20052;-74
2023/01/29 11:05:56;;;;;;;36.80;21.23;;;;;;;;;;5023127;28;20045;-74
2023/01/29 11:08:27;;;;;;;36.15;21.48;;;;;;;;;;5027171;28;20029;-74
2023/01/29 11:11:01;;;;;;;36.67;21.40;;;;;;;;;;5031791;28;20033;-74
2023/01/29 11:13:30;;;;;;;37.08;21.85;;;;;;;;;;5024138;28;20037;-74
2023/01/29 11:15:56;;;;;;;37.40;22.45;;;;;;;;;;5009083;28;20018;-74
2023/01/29 11:18:22;;;;;;;36.88;21.75;;;;;;;;;;5023228;28;20030;-74
2023/01/29 11:20:59;;;;;;;37.08;21.55;;;;;;;;;;5015616;28;20061;-75
2023/01/29 11:23:33;;;;;;;36.60;22.38;;;;;;;;;;5016624;28;20038;-76
2023/01/29 11:25:59;;;;;;;34.67;20.83;;;;;;;;;;5007865;28;20030;-75
2023/01/29 11:28:35;;;;;;;37.55;21.48;;;;;;;;;;5023343;28;20041;-75
2023/01/29 11:31:01;;;;;;;35.38;20.17;;;;;;;;;;5017848;28;20037;-76
2023/01/29 11:33:28;;;;;;;33.92;19.98;;;;;;;;;;5017970;28;20062;-75
2023/01/29 11:35:56;;;;;;;34.97;20.85;;;;;;;;;;5019327;28;20026;-75
2023/01/29 11:38:23;;;;;;;36.72;20.88;;;;;;;;;;5013221;28;20077;-75
2023/01/29 11:40:49;;;;;;;36.88;20.48;;;;;;;;;;5017794;28;20037;-75
2023/01/29 11:43:28;;;;;;;36.22;21.92;;;;;;;;;;5017552;28;20589;-75
2023/01/29 11:45:55;;;;;;;36.63;23.02;;;;;;;;;;5021997;28;20038;-75
2023/01/29 11:48:24;;;;;;;45.00;27.73;;;;;;;;;;5022611;28;20485;-75
2023/01/29 11:50:55;;;;;;;39.20;24.98;;;;;;;;;;5017546;28;20490;-75
2023/01/29 11:53:23;;;;;;;42.42;25.08;;;;;;;;;;5028149;28;20037;-75
2023/01/29 11:55:50;;;;;;;41.90;24.83;;;;;;;;;;5023207;28;20034;-75
2023/01/29 11:58:17;;;;;;;38.30;22.90;;;;;;;;;;5019327;28;20043;-75
2023/01/29 12:00:46;;;;;;;35.60;22.23;;;;;;;;;;5013800;28;20115;-75
2023/01/29 12:03:15;;;;;;;33.42;21.08;;;;;;;;;;5016282;28;20034;-75
2023/01/29 12:05:52;;;;;;;35.78;21.55;;;;;;;;;;5021665;28;20116;-75
2023/01/29 12:08:21;;;;;;;36.75;22.08;;;;;;;;;;5024578;28;20048;-75
2023/01/29 12:10:47;;;;;;;34.30;21.33;;;;;;;;;;5016160;28;20095;-75
2023/01/29 12:13:18;;;;;;;38.55;22.55;;;;;;;;;;5023937;28;20026;-75
2023/01/29 12:15:45;;;;;;;35.30;21.55;;;;;;;;;;5017555;28;20025;-75
2023/01/29 12:18:11;;;;;;;34.65;21.27;;;;;;;;;;5020600;28;20040;-75
2023/01/29 12:20:40;;;;;;;35.85;21.40;;;;;;;;;;5017512;28;20021;-75
2023/01/29 12:23:07;;;;;;;35.78;22.27;;;;;;;;;;5012283;28;20017;-75
2023/01/29 12:25:33;;;;;;;34.20;21.25;;;;;;;;;;5019102;28;20025;-75
2023/01/29 12:28:18;;;;;;;35.10;21.52;;;;;;;;;;5021957;28;20039;-76
2023/01/29 12:30:50;;;;;;;35.83;21.60;;;;;;;;;;5023277;28;20034;-75
2023/01/29 12:33:22;;;;;;;37.47;22.58;;;;;;;;;;5019481;28;20029;-75
2023/01/29 12:35:52;;;;;;;38.63;21.10;;;;;;;;;;5021305;28;20022;-75
2023/01/29 12:38:19;;;;;;;38.47;22.00;;;;;;;;;;5018605;28;20033;-75
2023/01/29 12:40:49;;;;;;;39.30;23.13;;;;;;;;;;5016610;28;20371;-75
2023/01/29 12:43:21;;;;;;;35.55;21.88;;;;;;;;;;5012526;28;20053;-76
2023/01/29 12:45:51;;;;;;;37.55;21.85;;;;;;;;;;5016392;28;20044;-75
2023/01/29 12:48:46;;;;;;;37.28;21.88;;;;;;;;;;5024312;28;20752;-75
2023/01/29 12:51:17;;;;;;;36.17;21.70;;;;;;;;;;5019964;28;20520;-75
2023/01/29 12:53:55;;;;;;;40.38;23.25;;;;;;;;;;5029986;28;20040;-75
2023/01/29 12:56:28;;;;;;;35.33;21.02;;;;;;;;;;5020322;28;20039;-75
2023/01/29 12:58:54;;;;;;;;;;;;;;;;;;5022139;28;20617;-75
2023/01/29 13:01:26;;;;;;;36.60;21.40;;;;;;;;;;5014154;28;19923;-75
2023/01/29 13:03:59;;;;;;;37.63;21.50;;;;;;;;;;4360813;28;10000830;-75
2023/01/29 13:06:27;;;;;;;43.80;22.45;;;;;;;;;;5077774;28;20542;-75
2023/01/29 13:08:55;;;;;;;38.05;21.90;;;;;;;;;;5077807;28;20570;-75
2023/01/29 13:11:27;;;;;;;35.53;20.80;;;;;;;;;;5066391;28;20526;-76
2023/01/29 13:13:56;;;;;;;34.83;21.48;;;;;;;;;;5061352;28;21130;-75
2023/01/29 13:16:24;;;;;;;35.28;22.23;;;;;;;;;;5067959;28;20627;-75
2023/01/29 13:18:54;;;;;;;34.55;22.02;;;;;;;;;;5063993;28;20040;-75
2023/01/29 13:21:22;;;;;;;34.45;21.83;;;;;;;;;;5059289;28;20056;-75
2023/01/29 13:23:53;;;;;;;40.63;22.58;;;;;;;;;;5076298;28;20124;-75
2023/01/29 13:26:19;;;;;;;35.70;21.85;;;;;;;;;;5067338;28;20036;-76
2023/01/29 13:28:45;;;;;;;35.47;22.80;;;;;;;;;;5076830;28;20036;-75
2023/01/29 13:31:11;;;;;;;34.47;21.30;;;;;;;;;;5067163;28;20047;-75
2023/01/29 13:33:38;;;;;;;37.42;21.77;;;;;;;;;;5062481;28;20068;-75
2023/01/29 13:36:04;;;;;;;32.67;20.05;;;;;;;;;;5018867;28;20034;-75
2023/01/29 13:38:32;;;;;;;32.42;20.13;;;;;;;;;;5009981;28;20040;-75
2023/01/29 13:41:02;;;;;;;33.80;20.17;;;;;;;;;;5017989;28;20084;-74
2023/01/29 13:43:32;;;;;;;32.63;19.15;;;;;;;;;;5011210;28;20032;-75
2023/01/29 13:46:05;;;;;;;30.92;19.63;;;;;;;;;;5011482;28;20072;-75
2023/01/29 13:48:35;;;;;;;36.28;20.77;;;;;;;;;;5014197;28;20038;-75
2023/01/29 13:51:02;;;;;;;35.20;20.02;;;;;;;;;;5010277;28;20042;-75
2023/01/29 13:53:33;;;;;;;32.72;20.73;;;;;;;;;;5010067;28;20021;-75
2023/01/29 13:56:38;;;;;;;31.58;19.85;;;;;;;;;;5012459;28;20096;-76
2023/01/29 13:59:05;;;;;;;32.33;19.10;;;;;;;;;;4976209;28;20030;-75
2023/01/29 14:01:46;;;;;;;33.88;20.58;;;;;;;;;;4976502;28;20129;-75
2023/01/29 14:04:27;;;;;;;29.90;19.38;;;;;;;;;;4995635;28;20053;-72
2023/01/29 14:06:54;;;;;;;34.30;20.27;;;;;;;;;;5004530;28;20239;-72
2023/01/29 14:09:33;;;;;;;29.75;18.70;;;;;;;;;;5015268;28;20033;-75
2023/01/29 14:11:59;;;;;;;39.63;21.95;;;;;;;;;;5015812;28;20033;-73
2023/01/29 14:14:43;;;;;;;34.78;20.85;;;;;;;;;;5012353;28;20588;-73
2023/01/29 14:17:09;;;;;;;37.35;22.13;;;;;;;;;;5019482;28;20041;-72
2023/01/29 14:19:35;;;;;;;35.42;20.42;;;;;;;;;;5010402;28;20033;-72
2023/01/29 14:22:01;;;;;;;33.70;19.60;;;;;;;;;;5009918;28;20052;-77
2023/01/29 14:24:30;;;;;;;34.33;20.13;;;;;;;;;;5011921;28;20267;-76
2023/01/29 14:26:56;;;;;;;36.95;20.80;;;;;;;;;;5019458;28;20037;-76
2023/01/29 14:29:26;;;;;;;33.20;20.65;;;;;;;;;;5010740;28;20071;-77
2023/01/29 14:32:12;;;;;;;36.42;21.40;;;;;;;;;;5013891;28;20576;-76
2023/01/29 14:34:47;;;;;;;36.75;21.60;;;;;;;;;;5020509;28;20654;-77
2023/01/29 14:37:17;;;;;;;34.85;21.15;;;;;;;;;;5024280;28;20509;-76
2023/01/29 14:39:49;;;;;;;34.15;19.92;;;;;;;;;;5020070;28;20030;-76
2023/01/29 14:42:18;;;;;;;40.63;21.60;;;;;;;;;;5021057;28;20068;-76
2023/01/29 14:44:44;;;;;;;37.20;21.90;;;;;;;;;;5013371;28;20116;-76
2023/01/29 14:47:17;;;;;;;38.83;22.30;;;;;;;;;;5024892;28;20040;-76
2023/01/29 14:49:57;;;;;;;38.08;21.67;;;;;;;;;;5011742;28;20116;-77
2023/01/29 14:52:32;;;;;;;39.63;22.63;;;;;;;;;;5013952;28;20113;-76
2023/01/29 14:55:00;;;;;;;43.35;24.00;;;;;;;;;;5006596;28;20038;-77
2023/01/29 14:57:28;;;;;;;42.17;24.85;;;;;;;;;;5019735;28;20105;-76
2023/01/29 15:00:00;;;;;;;41.55;24.27;;;;;;;;;;5025411;28;20041;-76
2023/01/29 15:02:32;;;;;;;44.78;24.63;;;;;;;;;;5015521;28;20030;-76